Time;durP1;ratioP1;P1;durP2;ratioP2;P2;SDS_P1;SDS_P2;PMS_P1;PMS_P2;Temp;Humidity;BMP_temperature;BMP_pressure;BME280_temperature;BME280_humidity;BME280_pressure;Samples;Min_cycle;Max_cycle;Signal;HPM_P1;HPM_P2
2023/12/20 00:01:17;;;;;;;9.10;0.80;;;6.40;89.10;;;;;;5027780;28;20058;-79
2023/12/20 00:03:44;;;;;;;6.45;1.20;;;6.40;88.90;;;;;;5026803;28;20045;-79
2023/12/20 00:06:11;;;;;;;7.40;1.50;;;6.50;89.00;;;;;;5047821;28;21155;-79
2023/12/20 00:08:38;;;;;;;10.05;1.38;;;6.40;88.90;;;;;;5028000;28;20285;-78
2023/12/20 00:11:06;;;;;;;9.40;1.20;;;6.40;89.00;;;;;;5009303;28;20515;-79
2023/12/20 00:13:33;;;;;;;7.72;0.90;;;6.50;89.00;;;;;;5045685;28;20053;-79
2023/12/20 00:16:00;;;;;;;7.72;0.93;;;6.50;88.80;;;;;;5046936;28;20054;-79
2023/12/20 00:18:27;;;;;;;9.73;0.90;;;6.50;88.70;;;;;;5046240;28;20526;-79
2023/12/20 00:20:54;;;;;;;7.13;0.95;;;6.40;88.80;;;;;;5029160;28;20304;-79
2023/12/20 00:23:23;;;;;;;8.10;0.95;;;6.50;88.80;;;;;;5029599;28;20050;-79
2023/12/20 00:25:49;;;;;;;5.10;0.75;;;6.50;88.70;;;;;;5046493;28;20680;-79
2023/12/20 00:28:18;;;;;;;7.57;0.70;;;6.50;88.50;;;;;;5045720;28;20123;-79
2023/12/20 00:30:45;;;;;;;7.43;0.83;;;6.40;88.50;;;;;;5027476;28;20049;-78
2023/12/20 00:33:11;;;;;;;5.18;0.80;;;6.40;88.40;;;;;;5045998;28;20261;-79
2023/12/20 00:35:38;;;;;;;6.95;0.85;;;6.40;88.40;;;;;;5047349;28;20054;-79
2023/12/20 00:38:06;;;;;;;6.50;0.95;;;6.40;88.40;;;;;;5046466;28;20475;-79
2023/12/20 00:40:34;;;;;;;6.35;0.80;;;6.40;88.40;;;;;;5040463;28;20143;-79
2023/12/20 00:43:00;;;;;;;9.20;0.80;;;6.40;88.40;;;;;;5008611;28;20049;-79
2023/12/20 00:45:29;;;;;;;10.07;0.90;;;6.40;88.40;;;;;;5026269;28;20258;-79
2023/12/20 00:47:56;;;;;;;8.75;0.70;;;6.40;88.20;;;;;;5032237;28;20052;-79
2023/12/20 00:50:22;;;;;;;5.18;1.02;;;6.40;88.20;;;;;;5065551;28;20057;-79
2023/12/20 00:52:49;;;;;;;6.57;0.65;;;6.40;88.20;;;;;;5062142;28;20054;-79
2023/12/20 00:55:16;;;;;;;5.20;0.63;;;6.40;88.00;;;;;;5046260;28;20215;-78
2023/12/20 00:57:43;;;;;;;8.15;0.50;;;6.40;88.10;;;;;;5055230;28;20785;-79
2023/12/20 01:00:11;;;;;;;8.23;0.70;;;6.40;88.00;;;;;;5028353;28;20058;-79
2023/12/20 01:02:40;;;;;;;9.05;1.00;;;6.40;87.90;;;;;;5025047;28;20137;-78
2023/12/20 01:05:09;;;;;;;8.27;1.08;;;6.40;87.90;;;;;;5007690;28;20061;-79
2023/12/20 01:07:36;;;;;;;6.77;1.20;;;6.30;88.00;;;;;;5025857;28;20046;-79
2023/12/20 01:10:03;;;;;;;10.45;0.85;;;6.30;88.00;;;;;;5026059;28;20277;-79
2023/12/20 01:12:30;;;;;;;8.73;0.65;;;6.30;88.20;;;;;;5025067;28;20273;-79
2023/12/20 01:14:57;;;;;;;6.35;0.60;;;6.30;88.20;;;;;;5037936;28;20049;-79
2023/12/20 01:17:24;;;;;;;10.80;1.10;;;6.40;88.10;;;;;;5066812;28;20072;-79
2023/12/20 01:19:52;;;;;;;10.07;1.40;;;6.40;88.00;;;;;;5047112;28;20046;-79
2023/12/20 01:22:19;;;;;;;10.05;1.23;;;6.30;88.10;;;;;;5043302;28;20268;-78
2023/12/20 01:24:46;;;;;;;5.75;0.75;;;6.40;88.10;;;;;;5047154;28;20603;-79
2023/12/20 01:27:13;;;;;;;11.15;1.30;;;6.40;88.00;;;;;;5045292;28;20472;-79
2023/12/20 01:29:40;;;;;;;5.30;0.55;;;6.40;87.90;;;;;;5046739;28;20056;-79
2023/12/20 01:32:07;;;;;;;9.63;1.03;;;6.40;87.90;;;;;;5028141;28;20140;-79
2023/12/20 01:34:34;;;;;;;12.57;1.23;;;6.40;87.80;;;;;;5045299;28;20295;-79
2023/12/20 01:37:03;;;;;;;7.40;0.82;;;6.40;87.70;;;;;;5044315;28;20053;-79
2023/12/20 01:39:30;;;;;;;12.50;1.40;;;6.40;87.70;;;;;;5048259;28;20114;-78
2023/12/20 01:41:57;;;;;;;11.32;1.27;;;6.40;87.80;;;;;;5062405;28;20049;-79
2023/12/20 01:44:24;;;;;;;6.20;0.80;;;6.40;87.80;;;;;;5027224;28;20551;-79
2023/12/20 01:46:51;;;;;;;13.85;1.75;;;6.40;87.80;;;;;;5043578;28;20340;-79
2023/12/20 01:49:18;;;;;;;7.68;1.15;;;6.40;87.90;;;;;;5037242;28;20132;-79
2023/12/20 01:51:46;;;;;;;9.90;1.48;;;6.40;87.90;;;;;;5042645;28;20060;-79
2023/12/20 01:54:14;;;;;;;8.82;1.35;;;6.40;87.80;;;;;;5008046;28;20394;-79
2023/12/20 01:56:42;;;;;;;9.53;1.30;;;6.40;87.80;;;;;;5031179;28;20587;-79
2023/12/20 01:59:10;;;;;;;9.10;1.35;;;6.40;87.70;;;;;;5039655;28;20636;-79
2023/12/20 02:01:37;;;;;;;11.52;1.77;;;6.50;87.70;;;;;;5028144;28;20054;-79
2023/12/20 02:04:04;;;;;;;9.18;1.35;;;6.50;87.60;;;;;;5028886;28;20499;-79
2023/12/20 02:06:32;;;;;;;12.50;1.48;;;6.40;87.60;;;;;;5055978;28;20052;-79
2023/12/20 02:09:00;;;;;;;9.63;1.23;;;6.50;87.60;;;;;;5050143;28;20051;-79
2023/12/20 02:11:28;;;;;;;9.60;1.45;;;6.50;87.50;;;;;;5048960;28;20283;-79
2023/12/20 02:13:55;;;;;;;11.23;1.17;;;6.40;87.40;;;;;;5040055;28;20058;-79
2023/12/20 02:16:22;;;;;;;9.73;1.65;;;6.40;87.50;;;;;;5029907;28;20061;-79
2023/12/20 02:18:49;;;;;;;9.80;0.93;;;6.40;87.50;;;;;;5048387;28;20050;-79
2023/12/20 02:21:16;;;;;;;6.13;0.73;;;6.50;87.50;;;;;;5047527;28;20524;-79
2023/12/20 02:23:44;;;;;;;8.07;1.27;;;6.50;87.70;;;;;;5030535;28;20279;-79
2023/12/20 02:26:13;;;;;;;14.02;1.70;;;6.40;87.70;;;;;;5028311;28;20204;-79
2023/12/20 02:28:40;;;;;;;8.98;1.17;;;6.40;87.80;;;;;;5047908;28;20133;-79
2023/12/20 02:31:07;;;;;;;12.65;1.30;;;6.50;87.90;;;;;;5047444;28;20062;-79
2023/12/20 02:33:34;;;;;;;10.57;1.07;;;6.50;87.90;;;;;;5048869;28;20335;-79
2023/12/20 02:36:01;;;;;;;8.25;1.42;;;6.50;87.90;;;;;;5044041;28;20743;-79
2023/12/20 02:38:28;;;;;;;10.40;1.10;;;6.50;88.00;;;;;;5029966;28;20085;-79
2023/12/20 02:40:56;;;;;;;14.70;1.70;;;6.50;88.10;;;;;;5045876;28;20064;-79
2023/12/20 02:43:23;;;;;;;10.95;1.35;;;6.50;88.20;;;;;;5049475;28;20057;-79
2023/12/20 02:45:50;;;;;;;7.77;1.03;;;6.50;88.20;;;;;;5047472;28;20049;-79
2023/12/20 02:48:17;;;;;;;9.40;0.95;;;6.50;88.20;;;;;;5052375;28;20288;-79
2023/12/20 02:50:44;;;;;;;10.07;1.23;;;6.50;88.10;;;;;;5066508;28;20171;-78
2023/12/20 02:53:10;;;;;;;11.02;1.48;;;6.50;88.20;;;;;;5047688;28;20523;-79
2023/12/20 02:55:37;;;;;;;9.52;1.35;;;6.50;88.30;;;;;;5047577;28;20057;-79
2023/12/20 02:58:06;;;;;;;11.53;1.23;;;6.50;88.30;;;;;;5036271;28;20060;-78
2023/12/20 03:00:33;;;;;;;14.95;1.70;;;6.60;88.20;;;;;;5047247;28;20249;-79
2023/12/20 03:03:00;;;;;;;11.50;1.58;;;6.60;88.20;;;;;;5028911;28;20565;-78
2023/12/20 03:05:27;;;;;;;9.50;1.30;;;6.60;88.20;;;;;;5032779;28;20392;-78
2023/12/20 03:07:54;;;;;;;12.30;1.80;;;6.60;88.20;;;;;;5030516;28;20057;-79
2023/12/20 03:10:20;;;;;;;10.53;1.93;;;6.70;88.20;;;;;;5047656;28;20590;-78
2023/12/20 03:12:47;;;;;;;9.77;1.48;;;6.70;88.20;;;;;;5048482;28;20267;-78
2023/12/20 03:15:16;;;;;;;14.07;2.10;;;6.70;88.10;;;;;;5040329;28;20042;-78
2023/12/20 03:17:43;;;;;;;10.75;1.80;;;6.70;88.00;;;;;;5028989;28;20682;-79
2023/12/20 03:20:10;;;;;;;13.40;1.70;;;6.70;88.00;;;;;;5028942;28;20053;-79
2023/12/20 03:22:37;;;;;;;11.03;1.70;;;6.70;87.90;;;;;;5038735;28;20491;-78
2023/12/20 03:25:04;;;;;;;12.30;1.60;;;6.70;87.90;;;;;;5066279;28;20252;-79
2023/12/20 03:27:31;;;;;;;16.92;1.50;;;6.70;88.00;;;;;;5048717;28;20122;-78
2023/12/20 03:29:58;;;;;;;13.35;2.05;;;6.70;88.00;;;;;;5048785;28;20053;-79
2023/12/20 03:32:26;;;;;;;16.25;2.22;;;6.70;87.90;;;;;;5046170;28;20491;-78
2023/12/20 03:34:53;;;;;;;11.53;2.20;;;6.70;87.90;;;;;;5047104;28;20059;-79
2023/12/20 03:37:20;;;;;;;17.35;2.33;;;6.70;88.00;;;;;;5030418;28;20281;-79
2023/12/20 03:39:47;;;;;;;20.23;2.38;;;6.70;88.00;;;;;;5046829;28;20660;-79
2023/12/20 03:42:14;;;;;;;13.45;1.67;;;6.70;88.00;;;;;;5046509;28;20053;-79
2023/12/20 03:44:41;;;;;;;16.15;2.17;;;6.70;88.00;;;;;;5046923;28;20480;-78
2023/12/20 03:47:08;;;;;;;20.67;2.53;;;6.80;87.80;;;;;;5046440;28;20572;-79
2023/12/20 03:49:38;;;;;;;14.55;1.67;;;6.80;87.60;;;;;;5038095;28;20682;-79
2023/12/20 03:52:05;;;;;;;15.65;2.45;;;6.80;87.50;;;;;;5027856;28;20500;-79
2023/12/20 03:54:32;;;;;;;15.38;2.17;;;6.80;87.40;;;;;;5010585;28;20054;-79
2023/12/20 03:56:59;;;;;;;11.45;1.67;;;6.80;87.50;;;;;;5043097;28;20187;-79
2023/12/20 03:59:26;;;;;;;14.73;2.07;;;6.80;87.30;;;;;;5053221;28;20142;-79
2023/12/20 04:01:53;;;;;;;16.63;2.47;;;6.80;87.30;;;;;;5026305;28;20293;-78
2023/12/20 04:04:20;;;;;;;9.88;1.45;;;6.80;87.40;;;;;;5032004;28;20045;-79
2023/12/20 04:06:48;;;;;;;20.13;2.63;;;6.80;87.50;;;;;;5030191;28;20046;-79
2023/12/20 04:09:15;;;;;;;15.00;2.05;;;6.90;87.50;;;;;;5046506;28;20167;-79
2023/12/20 04:11:42;;;;;;;12.67;1.90;;;6.90;87.30;;;;;;5045388;28;20043;-78
2023/12/20 04:14:10;;;;;;;17.05;2.08;;;6.80;87.40;;;;;;5046647;28;20356;-79
2023/12/20 04:16:37;;;;;;;12.45;1.25;;;6.90;87.50;;;;;;5047942;28;20144;-79
2023/12/20 04:19:04;;;;;;;13.20;2.13;;;6.90;87.50;;;;;;5028735;28;20057;-79
2023/12/20 04:21:31;;;;;;;18.42;2.28;;;6.90;87.30;;;;;;5047501;28;20100;-78
2023/12/20 04:23:59;;;;;;;15.43;2.40;;;6.90;87.20;;;;;;5051728;28;20050;-79
2023/12/20 04:26:26;;;;;;;20.33;2.38;;;6.90;87.30;;;;;;5047431;28;20277;-78
2023/12/20 04:28:53;;;;;;;14.18;2.55;;;6.90;87.30;;;;;;5046065;28;20045;-78
2023/12/20 04:31:19;;;;;;;14.57;2.40;;;6.90;87.20;;;;;;5036035;28;21133;-79
2023/12/20 04:33:46;;;;;;;16.77;2.10;;;6.90;87.10;;;;;;5013441;28;21059;-78
2023/12/20 04:36:13;;;;;;;14.60;2.10;;;7.00;87.10;;;;;;5046314;28;20146;-79
2023/12/20 04:38:41;;;;;;;18.00;2.80;;;7.00;86.90;;;;;;5047065;28;20261;-79
2023/12/20 04:41:09;;;;;;;13.02;2.65;;;7.00;87.00;;;;;;5010120;28;20606;-79
2023/12/20 04:43:36;;;;;;;13.27;2.38;;;7.00;86.80;;;;;;5027680;28;20507;-79
2023/12/20 04:46:03;;;;;;;18.15;2.60;;;7.00;86.60;;;;;;5026172;28;20042;-79
2023/12/20 04:48:30;;;;;;;11.33;2.17;;;7.00;86.60;;;;;;5027299;28;20128;-79
2023/12/20 04:50:56;;;;;;;14.18;2.08;;;7.00;86.50;;;;;;5026978;28;20396;-78
2023/12/20 04:53:23;;;;;;;16.83;2.50;;;7.00;86.60;;;;;;5025737;28;20129;-78
2023/12/20 04:55:50;;;;;;;23.20;2.90;;;7.00;86.60;;;;;;5009645;28;20538;-79
2023/12/20 04:58:18;;;;;;;19.20;2.40;;;7.00;86.80;;;;;;5028954;28;20057;-79
2023/12/20 05:00:45;;;;;;;14.33;2.60;;;7.00;86.80;;;;;;5027983;28;20120;-79
2023/12/20 05:03:12;;;;;;;15.05;2.17;;;7.00;86.70;;;;;;5027546;28;20357;-79
2023/12/20 05:05:39;;;;;;;16.63;2.65;;;7.00;86.50;;;;;;5033745;28;20132;-79
2023/12/20 05:08:07;;;;;;;18.15;2.25;;;7.00;86.50;;;;;;5028731;28;20134;-79
2023/12/20 05:10:35;;;;;;;16.52;2.30;;;7.10;86.60;;;;;;5046983;28;20678;-78
2023/12/20 05:13:02;;;;;;;11.67;1.73;;;7.10;86.70;;;;;;5044956;28;20235;-79
2023/12/20 05:15:30;;;;;;;16.02;2.90;;;7.10;86.70;;;;;;5035752;28;20281;-79
2023/12/20 05:17:57;;;;;;;10.77;1.92;;;7.20;86.70;;;;;;5027131;28;20535;-79
2023/12/20 05:20:24;;;;;;;16.48;2.65;;;7.20;86.80;;;;;;5008682;28;20060;-79
2023/12/20 05:22:51;;;;;;;19.20;2.42;;;7.20;86.90;;;;;;5007162;28;20054;-79
2023/12/20 05:25:18;;;;;;;13.33;2.70;;;7.20;86.90;;;;;;5025274;28;20042;-78
2023/12/20 05:27:45;;;;;;;15.25;2.22;;;7.20;86.80;;;;;;5025994;28;20625;-79
2023/12/20 05:30:13;;;;;;;9.45;1.90;;;7.20;86.80;;;;;;5025500;28;20054;-78
2023/12/20 05:32:42;;;;;;;11.13;1.60;;;7.20;86.80;;;;;;5053308;28;20054;-79
2023/12/20 05:35:08;;;;;;;14.63;2.25;;;7.30;86.60;;;;;;5043591;28;20053;-79
2023/12/20 05:37:35;;;;;;;10.30;1.77;;;7.20;86.60;;;;;;5043502;28;20049;-79
2023/12/20 05:40:02;;;;;;;17.23;3.10;;;7.30;86.50;;;;;;5054129;28;20281;-79
2023/12/20 05:42:29;;;;;;;19.25;2.80;;;7.40;86.40;;;;;;5055569;28;20079;-79
2023/12/20 05:44:56;;;;;;;11.60;1.90;;;7.30;86.40;;;;;;5043372;28;20052;-79
2023/12/20 05:47:23;;;;;;;13.43;2.17;;;7.40;86.30;;;;;;5038798;28;20145;-79
2023/12/20 05:49:51;;;;;;;15.27;2.40;;;7.40;85.90;;;;;;5008239;28;20060;-79
2023/12/20 05:52:18;;;;;;;18.67;2.85;;;7.40;85.90;;;;;;5008418;28;20270;-79
2023/12/20 05:54:45;;;;;;;15.73;3.67;;;7.40;86.00;;;;;;5008457;28;20077;-79
2023/12/20 05:57:12;;;;;;;16.10;2.70;;;7.50;86.00;;;;;;5024469;28;20064;-79
2023/12/20 05:59:39;;;;;;;13.15;2.60;;;7.50;85.90;;;;;;5039610;28;20504;-79
2023/12/20 06:02:06;;;;;;;15.37;2.53;;;7.50;86.00;;;;;;5041948;28;20054;-79
2023/12/20 06:04:34;;;;;;;15.63;2.92;;;7.40;86.00;;;;;;5047231;28;20292;-79
2023/12/20 06:07:03;;;;;;;17.75;2.92;;;7.50;85.70;;;;;;5039668;28;20061;-79
2023/12/20 06:09:30;;;;;;;17.25;2.63;;;7.50;85.60;;;;;;5009529;28;20050;-79
2023/12/20 06:11:57;;;;;;;18.70;2.40;;;7.50;85.40;;;;;;5025063;28;20061;-79
2023/12/20 06:14:24;;;;;;;6.67;1.70;;;7.50;85.50;;;;;;5023537;28;20056;-79
2023/12/20 06:16:51;;;;;;;13.18;1.80;;;7.50;85.60;;;;;;5008287;28;20249;-79
2023/12/20 06:19:18;;;;;;;16.85;2.28;;;7.50;85.50;;;;;;5026168;28;20510;-79
2023/12/20 06:21:45;;;;;;;17.27;2.20;;;7.50;85.60;;;;;;5033077;28;20049;-79
2023/12/20 06:24:13;;;;;;;18.08;3.00;;;7.50;85.70;;;;;;5064607;28;20059;-79
2023/12/20 06:26:40;;;;;;;14.33;2.40;;;7.50;85.50;;;;;;5059836;28;20056;-79
2023/12/20 06:29:08;;;;;;;17.70;2.60;;;7.50;85.10;;;;;;5044818;28;20757;-79
2023/12/20 06:31:34;;;;;;;18.00;2.55;;;7.50;85.10;;;;;;5045667;28;20057;-79
2023/12/20 06:34:02;;;;;;;11.45;1.92;;;7.60;85.00;;;;;;5044359;28;20180;-79
2023/12/20 06:36:28;;;;;;;16.65;2.15;;;7.60;85.00;;;;;;5044254;28;20053;-79
2023/12/20 06:38:55;;;;;;;13.90;1.83;;;7.60;85.00;;;;;;5044535;28;20478;-79
2023/12/20 06:41:24;;;;;;;16.90;2.40;;;7.60;84.80;;;;;;5039405;28;20349;-79
2023/12/20 06:43:51;;;;;;;11.60;1.63;;;7.60;84.60;;;;;;5048179;28;20115;-79
2023/12/20 06:46:18;;;;;;;13.15;2.03;;;7.60;84.70;;;;;;5049355;28;20726;-79
2023/12/20 06:48:45;;;;;;;11.25;1.75;;;7.60;84.70;;;;;;5036401;28;20136;-79
2023/12/20 06:51:13;;;;;;;14.87;2.20;;;7.70;84.70;;;;;;5068989;28;20056;-79
2023/12/20 06:53:40;;;;;;;12.30;1.95;;;7.60;84.80;;;;;;5062763;28;20268;-79
2023/12/20 06:56:08;;;;;;;12.70;2.13;;;7.60;84.80;;;;;;5047734;28;20051;-79
2023/12/20 06:58:37;;;;;;;11.73;1.88;;;7.70;84.70;;;;;;5051296;28;20113;-79
2023/12/20 07:01:04;;;;;;;14.60;2.50;;;7.70;84.90;;;;;;5028735;28;20112;-79
2023/12/20 07:03:32;;;;;;;12.53;1.97;;;7.70;85.00;;;;;;5029387;28;20050;-79
2023/12/20 07:05:59;;;;;;;16.85;2.80;;;7.70;84.90;;;;;;5033559;28;20268;-79
2023/12/20 07:08:26;;;;;;;10.27;1.40;;;7.80;85.00;;;;;;5047757;28;20056;-79
2023/12/20 07:10:53;;;;;;;13.40;2.28;;;7.70;85.00;;;;;;5046992;28;20057;-79
2023/12/20 07:13:20;;;;;;;16.05;2.40;;;7.70;85.10;;;;;;5051978;28;20164;-79
2023/12/20 07:15:48;;;;;;;13.20;2.07;;;7.70;85.10;;;;;;5030700;28;20404;-79
2023/12/20 07:18:15;;;;;;;18.58;2.60;;;7.70;85.10;;;;;;5045430;28;20272;-79
2023/12/20 07:20:42;;;;;;;14.43;1.63;;;7.80;85.10;;;;;;5009764;28;20073;-79
2023/12/20 07:23:10;;;;;;;14.55;2.05;;;7.80;85.00;;;;;;5029082;28;20669;-79
2023/12/20 07:25:36;;;;;;;14.98;2.20;;;7.80;85.00;;;;;;5046274;28;20496;-79
2023/12/20 07:28:04;;;;;;;15.67;2.10;;;7.80;85.00;;;;;;5047012;28;20057;-79
2023/12/20 07:30:31;;;;;;;12.45;1.75;;;7.80;84.70;;;;;;5046257;28;20261;-79
2023/12/20 07:33:00;;;;;;;12.32;2.45;;;7.80;84.70;;;;;;5047442;28;20538;-79
2023/12/20 07:35:27;;;;;;;14.75;2.60;;;7.80;84.60;;;;;;5046551;28;20472;-79
2023/12/20 07:37:54;;;;;;;9.50;1.70;;;7.80;84.80;;;;;;5046091;28;20053;-79
2023/12/20 07:40:21;;;;;;;15.30;1.70;;;7.80;84.70;;;;;;5044243;28;20049;-79
2023/12/20 07:42:48;;;;;;;8.95;1.45;;;7.80;84.60;;;;;;5046665;28;21245;-79
2023/12/20 07:45:15;;;;;;;15.30;2.80;;;7.80;84.60;;;;;;5046947;28;20081;-79
2023/12/20 07:47:42;;;;;;;10.82;1.60;;;7.80;84.70;;;;;;5048631;28;20054;-79
2023/12/20 07:50:11;;;;;;;17.60;3.33;;;7.80;84.70;;;;;;5047773;28;21056;-79
2023/12/20 07:52:38;;;;;;;12.23;2.50;;;7.80;84.50;;;;;;5045241;28;20192;-79
2023/12/20 07:55:05;;;;;;;17.25;2.47;;;7.80;84.30;;;;;;5048590;28;20746;-79
2023/12/20 07:57:32;;;;;;;14.50;2.50;;;7.90;84.30;;;;;;5049941;28;20049;-79
2023/12/20 08:00:03;;;;;;;18.35;3.70;;;8.00;84.10;;;;;;5019909;28;20052;-79
2023/12/20 08:02:31;;;;;;;13.73;2.50;;;8.00;83.90;;;;;;5047957;28;20127;-79
2023/12/20 08:04:58;;;;;;;16.57;2.43;;;8.00;84.00;;;;;;5048514;28;20054;-79
2023/12/20 08:07:27;;;;;;;16.85;3.40;;;8.00;84.00;;;;;;5047495;28;20348;-79
2023/12/20 08:09:54;;;;;;;17.73;3.28;;;8.00;84.10;;;;;;5030347;28;20175;-79
2023/12/20 08:12:22;;;;;;;19.90;2.55;;;8.00;83.80;;;;;;5044407;28;20063;-79
2023/12/20 08:14:49;;;;;;;17.52;2.80;;;8.00;84.00;;;;;;5047534;28;20053;-79
2023/12/20 08:17:18;;;;;;;13.23;2.77;;;8.00;83.90;;;;;;5046338;28;20087;-79
2023/12/20 08:19:45;;;;;;;18.73;3.60;;;8.00;83.80;;;;;;5047423;28;20257;-79
2023/12/20 08:22:12;;;;;;;18.15;2.13;;;8.00;83.70;;;;;;5048907;28;20049;-79
2023/12/20 08:24:42;;;;;;;15.50;2.72;;;8.10;83.70;;;;;;5030021;28;20049;-79
2023/12/20 08:27:10;;;;;;;16.65;2.55;;;8.10;83.70;;;;;;5046811;28;20057;-79
2023/12/20 08:29:37;;;;;;;14.27;2.30;;;8.10;83.70;;;;;;5046892;28;20041;-79
2023/12/20 08:32:04;;;;;;;17.60;3.63;;;8.10;83.50;;;;;;5039195;28;20303;-80
2023/12/20 08:34:31;;;;;;;18.85;3.45;;;8.10;83.20;;;;;;5027035;28;20511;-79
2023/12/20 08:36:58;;;;;;;16.58;2.75;;;8.10;83.20;;;;;;5037313;28;20124;-80
2023/12/20 08:39:26;;;;;;;18.05;3.53;;;8.10;83.10;;;;;;5058930;28;20969;-80
2023/12/20 08:41:54;;;;;;;23.87;3.80;;;8.10;82.90;;;;;;5026139;28;20546;-80
2023/12/20 08:44:22;;;;;;;17.13;3.10;;;8.10;82.80;;;;;;5039577;28;20333;-82
2023/12/20 08:46:49;;;;;;;13.95;2.05;;;8.20;82.70;;;;;;5027602;28;20621;-77
2023/12/20 08:49:16;;;;;;;18.42;3.30;;;8.20;82.70;;;;;;5042219;28;20046;-80
2023/12/20 08:51:42;;;;;;;15.55;3.00;;;8.20;82.70;;;;;;5043610;28;20049;-78
2023/12/20 08:54:10;;;;;;;14.97;3.03;;;8.20;82.70;;;;;;5044197;28;20050;-78
2023/12/20 08:56:37;;;;;;;19.33;3.08;;;8.20;82.40;;;;;;5044649;28;20686;-78
2023/12/20 08:59:05;;;;;;;13.48;2.60;;;8.20;82.50;;;;;;5041674;28;20049;-78
2023/12/20 09:01:32;;;;;;;16.00;2.80;;;8.30;82.20;;;;;;5044588;28;20097;-78
2023/12/20 09:03:59;;;;;;;13.05;2.60;;;8.30;82.40;;;;;;5045386;28;20060;-78
2023/12/20 09:06:26;;;;;;;14.43;2.43;;;8.30;82.30;;;;;;5011614;28;20053;-79
2023/12/20 09:08:53;;;;;;;16.23;2.75;;;8.30;82.20;;;;;;5047049;28;20784;-79
2023/12/20 09:11:19;;;;;;;13.00;1.60;;;8.30;81.90;;;;;;5044405;28;20680;-78
2023/12/20 09:13:46;;;;;;;11.25;2.22;;;8.30;82.00;;;;;;5028586;28;20103;-78
2023/12/20 09:16:15;;;;;;;17.55;3.42;;;8.30;82.30;;;;;;5046216;28;20053;-78
2023/12/20 09:18:42;;;;;;;11.40;2.13;;;8.30;82.20;;;;;;5045136;28;20104;-78
2023/12/20 09:21:09;;;;;;;10.05;1.80;;;8.30;82.10;;;;;;5043874;28;20276;-78
2023/12/20 09:23:36;;;;;;;17.35;3.53;;;8.30;82.00;;;;;;5044885;28;20049;-78
2023/12/20 09:26:03;;;;;;;15.90;3.50;;;8.30;81.90;;;;;;5043107;28;20358;-80
2023/12/20 09:28:32;;;;;;;14.07;2.20;;;8.30;81.60;;;;;;5039051;28;20045;-78
2023/12/20 09:30:59;;;;;;;14.63;2.50;;;8.30;81.70;;;;;;5043445;28;20077;-78
2023/12/20 09:33:27;;;;;;;14.18;2.78;;;8.30;81.60;;;;;;5044585;28;20249;-77
2023/12/20 09:35:54;;;;;;;10.02;2.05;;;8.30;81.60;;;;;;5045248;28;20064;-79
2023/12/20 09:38:22;;;;;;;16.40;3.50;;;8.30;81.80;;;;;;5036483;28;20061;-78
2023/12/20 09:40:49;;;;;;;13.05;2.40;;;8.30;81.70;;;;;;5027076;28;20128;-78
2023/12/20 09:43:19;;;;;;;10.07;2.00;;;8.40;80.60;;;;;;5042482;28;20053;-78
2023/12/20 09:45:48;;;;;;;7.32;1.35;;;8.40;79.80;;;;;;5026645;28;20321;-77
2023/12/20 09:48:19;;;;;;;4.68;0.60;;;8.30;78.00;;;;;;5039961;28;20068;-77
2023/12/20 09:50:47;;;;;;;4.88;0.82;;;8.00;78.00;;;;;;5040347;28;20092;-78
2023/12/20 09:53:17;;;;;;;5.85;1.00;;;7.80;77.70;;;;;;5045333;28;20054;-77
2023/12/20 09:55:44;;;;;;;7.33;0.87;;;7.60;78.30;;;;;;5026832;28;20049;-78
2023/12/20 09:58:11;;;;;;;3.75;0.50;;;7.30;80.30;;;;;;5046938;28;20252;-79
2023/12/20 10:00:38;;;;;;;3.72;0.30;;;7.20;81.30;;;;;;5045760;28;20108;-79
2023/12/20 10:03:06;;;;;;;8.25;0.70;;;7.10;82.60;;;;;;5027001;28;20164;-79
2023/12/20 10:05:35;;;;;;;4.55;0.75;;;7.00;83.20;;;;;;5044858;28;20663;-79
2023/12/20 10:08:04;;;;;;;3.83;0.50;;;7.00;83.50;;;;;;5042840;28;20160;-79
2023/12/20 10:10:31;;;;;;;3.53;0.32;;;7.00;83.60;;;;;;5044661;28;20276;-79
2023/12/20 10:13:05;;;;;;;3.60;0.30;;;7.00;83.60;;;;;;5042607;28;20046;-78
2023/12/20 10:15:33;;;;;;;4.35;0.50;;;7.00;83.00;;;;;;5036605;28;20391;-79
2023/12/20 10:18:01;;;;;;;3.15;0.38;;;6.90;83.10;;;;;;5026720;28;20053;-79
2023/12/20 10:20:29;;;;;;;4.10;0.30;;;6.90;83.10;;;;;;5048806;28;20058;-79
2023/12/20 10:22:56;;;;;;;3.40;0.32;;;6.90;83.10;;;;;;5023747;28;20241;-79
2023/12/20 10:25:25;;;;;;;2.33;0.43;;;6.90;83.30;;;;;;5029556;28;20043;-79
2023/12/20 10:28:10;;;;;;;3.88;0.40;;;6.80;83.50;;;;;;5046633;28;20530;-79
2023/12/20 10:30:37;;;;;;;5.45;0.40;;;6.80;83.40;;;;;;5045284;28;20759;-79
2023/12/20 10:33:06;;;;;;;4.37;0.43;;;6.80;83.70;;;;;;5039177;28;20060;-78
2023/12/20 10:35:33;;;;;;;6.15;0.57;;;6.80;83.60;;;;;;5048892;28;20901;-79
2023/12/20 10:38:05;;;;;;;3.28;0.40;;;6.80;84.00;;;;;;5047519;28;20057;-79
2023/12/20 10:40:37;;;;;;;7.32;0.32;;;6.80;84.30;;;;;;5043559;28;20068;-79
2023/12/20 10:43:05;;;;;;;6.53;0.75;;;6.80;84.40;;;;;;5043222;28;20069;-79
2023/12/20 10:45:32;;;;;;;8.63;0.73;;;6.70;84.50;;;;;;5044992;28;20049;-79
2023/12/20 10:48:00;;;;;;;3.75;0.60;;;6.70;84.60;;;;;;5047163;28;20693;-79
2023/12/20 10:50:28;;;;;;;6.95;0.80;;;6.70;84.90;;;;;;5043809;28;20053;-79
2023/12/20 10:52:56;;;;;;;4.68;0.50;;;6.70;84.80;;;;;;5045512;28;20569;-79
2023/12/20 10:55:23;;;;;;;4.85;0.73;;;6.70;85.00;;;;;;5031177;28;20533;-79
2023/12/20 10:57:52;;;;;;;7.13;0.70;;;6.70;84.90;;;;;;5041362;28;20092;-79
2023/12/20 11:00:20;;;;;;;5.40;0.60;;;6.70;85.00;;;;;;5043463;28;20400;-79
2023/12/20 11:02:47;;;;;;;4.80;0.60;;;6.80;84.80;;;;;;5038560;28;20431;-79
2023/12/20 11:05:25;;;;;;;7.53;0.90;;;6.80;84.50;;;;;;5047554;28;20050;-79
2023/12/20 11:07:57;;;;;;;7.75;0.95;;;6.80;84.10;;;;;;5039488;28;20196;-79
2023/12/20 11:10:27;;;;;;;6.47;0.47;;;6.80;83.70;;;;;;5045154;28;20049;-80
2023/12/20 11:13:03;;;;;;;5.13;0.70;;;6.80;83.70;;;;;;5050959;28;20249;-79
2023/12/20 11:15:30;;;;;;;4.38;0.70;;;6.90;83.50;;;;;;5042226;28;21182;-79
2023/12/20 11:17:58;;;;;;;6.57;0.80;;;6.90;83.20;;;;;;5047931;28;20041;-79
2023/12/20 11:20:36;;;;;;;5.78;0.90;;;6.90;83.00;;;;;;5040971;28;20058;-79
2023/12/20 11:23:03;;;;;;;4.20;0.50;;;7.00;83.00;;;;;;5051676;28;20053;-79
2023/12/20 11:25:30;;;;;;;3.38;0.40;;;7.00;83.30;;;;;;5018809;28;20428;-79
2023/12/20 11:28:12;;;;;;;10.10;0.95;;;7.00;83.10;;;;;;5019533;28;20057;-80
2023/12/20 11:30:43;;;;;;;7.20;0.70;;;7.00;83.00;;;;;;5047768;28;20053;-80
2023/12/20 11:33:10;;;;;;;6.55;0.80;;;7.00;82.80;;;;;;5043210;28;20061;-80
2023/12/20 11:35:39;;;;;;;8.60;0.80;;;7.00;83.10;;;;;;5051451;28;20080;-79
2023/12/20 11:38:09;;;;;;;5.90;0.80;;;7.00;83.40;;;;;;5043316;28;20254;-79
2023/12/20 11:40:36;;;;;;;6.28;0.77;;;7.10;83.30;;;;;;5041449;28;20777;-78
2023/12/20 11:43:04;;;;;;;14.48;0.82;;;7.20;83.30;;;;;;5028713;28;20044;-79
2023/12/20 11:45:34;;;;;;;6.50;0.98;;;7.20;83.70;;;;;;5058382;28;20053;-79
2023/12/20 11:48:02;;;;;;;2.60;0.33;;;7.20;83.90;;;;;;5038712;28;20054;-80
2023/12/20 11:50:30;;;;;;;3.85;0.40;;;7.20;83.90;;;;;;5009152;28;20300;-79
2023/12/20 11:52:58;;;;;;;6.43;0.50;;;7.20;84.20;;;;;;5010088;28;20050;-79
2023/12/20 11:55:25;;;;;;;8.85;0.88;;;7.20;84.40;;;;;;5042479;28;20129;-78
2023/12/20 11:57:53;;;;;;;5.60;0.85;;;7.20;84.30;;;;;;5048601;28;20129;-78
2023/12/20 12:00:21;;;;;;;13.27;1.40;;;7.20;84.70;;;;;;5045422;28;20053;-79
2023/12/20 12:03:01;;;;;;;13.07;1.30;;;7.20;84.70;;;;;;5027914;28;20284;-78
2023/12/20 12:05:28;;;;;;;10.43;1.20;;;7.20;84.80;;;;;;5045839;28;20120;-78
2023/12/20 12:07:55;;;;;;;7.60;1.20;;;7.20;85.00;;;;;;5046064;28;20053;-78
2023/12/20 12:10:23;;;;;;;8.27;1.20;;;7.20;85.10;;;;;;5029351;28;20045;-78
2023/12/20 12:12:50;;;;;;;10.73;1.13;;;7.20;85.10;;;;;;5055409;28;20059;-80
2023/12/20 12:15:17;;;;;;;10.23;1.15;;;7.30;85.00;;;;;;5044913;28;20777;-79
2023/12/20 12:17:44;;;;;;;7.63;0.90;;;7.20;85.20;;;;;;5046721;28;20049;-78
2023/12/20 12:20:13;;;;;;;7.03;0.75;;;7.30;85.20;;;;;;5044136;28;20061;-84
2023/12/20 12:22:40;;;;;;;5.78;0.60;;;7.30;85.00;;;;;;5021645;28;20709;-80
2023/12/20 13:53:20;;;;;;;5.97;0.70;;;6.60;87.50;;;;;;5044756;28;20049;-78
2023/12/20 13:55:47;;;;;;;6.03;0.57;;;6.50;87.30;;;;;;5045771;28;20328;-78
2023/12/20 13:58:14;;;;;;;4.10;0.70;;;6.60;87.60;;;;;;5046780;28;20494;-77
2023/12/20 14:00:41;;;;;;;4.82;0.68;;;6.60;87.70;;;;;;5039483;28;20061;-77
2023/12/20 14:03:29;;;;;;;6.80;0.80;;;6.60;87.80;;;;;;5046988;28;20050;-77
2023/12/20 14:05:56;;;;;;;3.73;0.40;;;6.50;88.00;;;;;;5036451;28;20756;-77
2023/12/20 14:08:25;;;;;;;5.68;0.60;;;6.60;88.20;;;;;;5045982;28;20280;-77
2023/12/20 14:10:54;;;;;;;3.72;0.57;;;6.50;88.20;;;;;;5043973;28;20050;-77
2023/12/20 14:13:21;;;;;;;4.72;0.63;;;6.50;88.20;;;;;;5041608;28;20087;-80
2023/12/20 14:15:49;;;;;;;4.00;1.10;;;6.50;88.40;;;;;;5020743;28;20911;-78
2023/12/20 14:18:17;;;;;;;5.93;0.90;;;6.50;88.40;;;;;;5044163;28;20446;-77
2023/12/20 14:20:44;;;;;;;6.22;1.10;;;6.50;88.40;;;;;;5044496;28;20253;-79